sensor_id;sensor_type;location;lat;lon;timestamp;temperature;humidity
17813;DHT22;9030;50.792;8.320;2023-06-26T00:01:53;15.50;99.90
17813;DHT22;9030;50.792;8.320;2023-06-26T00:04:20;15.40;99.90
17813;DHT22;9030;50.792;8.320;2023-06-26T00:06:46;15.40;99.90
17813;DHT22;9030;50.792;8.320;2023-06-26T00:09:13;15.50;99.90
17813;DHT22;9030;50.792;8.320;2023-06-26T00:11:40;15.40;99.90
17813;DHT22;9030;50.792;8.320;2023-06-26T00:14:06;15.40;99.90
17813;DHT22;9030;50.792;8.320;2023-06-26T00:16:34;15.30;99.90
17813;DHT22;9030;50.792;8.320;2023-06-26T00:19:02;15.20;99.90
17813;DHT22;9030;50.792;8.320;2023-06-26T00:21:28;15.20;99.90
17813;DHT22;9030;50.792;8.320;2023-06-26T00:23:55;15.20;99.90
17813;DHT22;9030;50.792;8.320;2023-06-26T00:26:22;15.10;99.90
17813;DHT22;9030;50.792;8.320;2023-06-26T00:28:49;15.20;99.90
17813;DHT22;9030;50.792;8.320;2023-06-26T00:31:16;15.10;99.90
17813;DHT22;9030;50.792;8.320;2023-06-26T00:33:44;15.10;99.90
17813;DHT22;9030;50.792;8.320;2023-06-26T00:36:10;15.10;99.90
17813;DHT22;9030;50.792;8.320;2023-06-26T00:38:37;15.10;99.90
17813;DHT22;9030;50.792;8.320;2023-06-26T00:41:04;15.10;99.90
17813;DHT22;9030;50.792;8.320;2023-06-26T00:43:30;15.10;99.90
17813;DHT22;9030;50.792;8.320;2023-06-26T00:45:57;15.10;99.90
17813;DHT22;9030;50.792;8.320;2023-06-26T00:48:24;15.00;99.90
17813;DHT22;9030;50.792;8.320;2023-06-26T00:50:52;15.00;99.90
17813;DHT22;9030;50.792;8.320;2023-06-26T00:53:19;15.00;99.90
17813;DHT22;9030;50.792;8.320;2023-06-26T00:55:46;15.00;99.90
17813;DHT22;9030;50.792;8.320;2023-06-26T00:58:12;14.90;99.90
17813;DHT22;9030;50.792;8.320;2023-06-26T01:00:39;14.90;99.90
17813;DHT22;9030;50.792;8.320;2023-06-26T01:03:06;14.90;99.90
17813;DHT22;9030;50.792;8.320;2023-06-26T01:05:33;14.90;99.90
17813;DHT22;9030;50.792;8.320;2023-06-26T01:08:01;14.80;99.90
17813;DHT22;9030;50.792;8.320;2023-06-26T01:10:28;14.80;99.90
17813;DHT22;9030;50.792;8.320;2023-06-26T01:12:55;14.90;99.90
17813;DHT22;9030;50.792;8.320;2023-06-26T01:15:23;14.80;99.90
17813;DHT22;9030;50.792;8.320;2023-06-26T01:17:50;14.70;99.90
17813;DHT22;9030;50.792;8.320;2023-06-26T01:20:19;14.70;99.90
17813;DHT22;9030;50.792;8.320;2023-06-26T01:22:51;14.60;99.90
17813;DHT22;9030;50.792;8.320;2023-06-26T01:25:32;14.60;99.90
17813;DHT22;9030;50.792;8.320;2023-06-26T01:28:05;14.60;99.90
17813;DHT22;9030;50.792;8.320;2023-06-26T01:30:32;14.50;99.90
17813;DHT22;9030;50.792;8.320;2023-06-26T01:33:00;14.50;99.90
17813;DHT22;9030;50.792;8.320;2023-06-26T01:35:28;14.60;99.90
17813;DHT22;9030;50.792;8.320;2023-06-26T01:38:13;14.50;99.90
17813;DHT22;9030;50.792;8.320;2023-06-26T01:40:40;14.40;99.90
17813;DHT22;9030;50.792;8.320;2023-06-26T01:43:15;14.40;99.90
17813;DHT22;9030;50.792;8.320;2023-06-26T01:45:45;14.40;99.90
17813;DHT22;9030;50.792;8.320;2023-06-26T01:48:16;14.40;99.90
17813;DHT22;9030;50.792;8.320;2023-06-26T01:50:48;14.40;99.90
17813;DHT22;9030;50.792;8.320;2023-06-26T01:53:17;14.40;99.90
17813;DHT22;9030;50.792;8.320;2023-06-26T01:55:47;14.40;99.90
17813;DHT22;9030;50.792;8.320;2023-06-26T01:58:18;14.30;99.90
17813;DHT22;9030;50.792;8.320;2023-06-26T02:00:47;14.30;99.90
17813;DHT22;9030;50.792;8.320;2023-06-26T02:03:14;14.30;99.90
17813;DHT22;9030;50.792;8.320;2023-06-26T02:05:40;14.30;99.90
17813;DHT22;9030;50.792;8.320;2023-06-26T02:08:08;14.30;99.90
17813;DHT22;9030;50.792;8.320;2023-06-26T02:10:35;14.20;99.90
17813;DHT22;9030;50.792;8.320;2023-06-26T02:13:02;14.20;99.90
17813;DHT22;9030;50.792;8.320;2023-06-26T02:15:30;14.20;99.90
17813;DHT22;9030;50.792;8.320;2023-06-26T02:17:56;14.20;99.90
17813;DHT22;9030;50.792;8.320;2023-06-26T02:20:23;14.20;99.90
17813;DHT22;9030;50.792;8.320;2023-06-26T02:22:50;14.20;99.90
17813;DHT22;9030;50.792;8.320;2023-06-26T02:25:17;14.10;99.90
17813;DHT22;9030;50.792;8.320;2023-06-26T02:27:44;14.10;99.90
17813;DHT22;9030;50.792;8.320;2023-06-26T02:30:11;14.10;99.90
17813;DHT22;9030;50.792;8.320;2023-06-26T02:32:39;14.00;99.90
17813;DHT22;9030;50.792;8.320;2023-06-26T02:35:06;14.10;99.90
17813;DHT22;9030;50.792;8.320;2023-06-26T02:37:33;14.00;99.90
17813;DHT22;9030;50.792;8.320;2023-06-26T02:40:00;14.00;99.90
17813;DHT22;9030;50.792;8.320;2023-06-26T02:42:26;14.00;99.90
17813;DHT22;9030;50.792;8.320;2023-06-26T02:44:53;13.90;99.90
17813;DHT22;9030;50.792;8.320;2023-06-26T02:47:20;13.80;99.90
17813;DHT22;9030;50.792;8.320;2023-06-26T02:49:48;13.80;99.90
17813;DHT22;9030;50.792;8.320;2023-06-26T02:52:14;13.70;99.90
17813;DHT22;9030;50.792;8.320;2023-06-26T02:54:41;13.70;99.90
17813;DHT22;9030;50.792;8.320;2023-06-26T02:57:07;13.70;99.90
17813;DHT22;9030;50.792;8.320;2023-06-26T02:59:34;13.70;99.90
17813;DHT22;9030;50.792;8.320;2023-06-26T03:02:01;13.70;99.90
17813;DHT22;9030;50.792;8.320;2023-06-26T03:04:27;13.60;99.90
17813;DHT22;9030;50.792;8.320;2023-06-26T03:06:55;13.60;99.90
17813;DHT22;9030;50.792;8.320;2023-06-26T03:09:22;13.60;99.90
17813;DHT22;9030;50.792;8.320;2023-06-26T03:11:49;13.50;99.90
17813;DHT22;9030;50.792;8.320;2023-06-26T03:14:15;13.50;99.90
17813;DHT22;9030;50.792;8.320;2023-06-26T03:16:42;13.50;99.90
17813;DHT22;9030;50.792;8.320;2023-06-26T03:19:09;13.60;99.90
17813;DHT22;9030;50.792;8.320;2023-06-26T03:21:36;13.60;99.90
17813;DHT22;9030;50.792;8.320;2023-06-26T03:24:04;13.60;99.90
17813;DHT22;9030;50.792;8.320;2023-06-26T03:26:31;13.60;99.90
17813;DHT22;9030;50.792;8.320;2023-06-26T03:28:58;13.60;99.90
17813;DHT22;9030;50.792;8.320;2023-06-26T03:31:24;13.60;99.90
17813;DHT22;9030;50.792;8.320;2023-06-26T03:33:51;13.60;99.90
17813;DHT22;9030;50.792;8.320;2023-06-26T03:36:18;13.60;99.90
17813;DHT22;9030;50.792;8.320;2023-06-26T03:38:44;13.60;99.90
17813;DHT22;9030;50.792;8.320;2023-06-26T03:41:12;13.50;99.90
17813;DHT22;9030;50.792;8.320;2023-06-26T03:43:39;13.50;99.90
17813;DHT22;9030;50.792;8.320;2023-06-26T03:46:05;13.50;99.90
17813;DHT22;9030;50.792;8.320;2023-06-26T03:48:32;13.60;99.90
17813;DHT22;9030;50.792;8.320;2023-06-26T03:50:59;13.60;99.90
17813;DHT22;9030;50.792;8.320;2023-06-26T03:53:27;13.60;99.90
17813;DHT22;9030;50.792;8.320;2023-06-26T03:55:54;13.70;99.90
17813;DHT22;9030;50.792;8.320;2023-06-26T03:58:22;13.80;99.90
17813;DHT22;9030;50.792;8.320;2023-06-26T04:00:48;13.80;99.90
17813;DHT22;9030;50.792;8.320;2023-06-26T04:03:15;13.90;99.90
17813;DHT22;9030;50.792;8.320;2023-06-26T04:05:42;13.90;99.90
17813;DHT22;9030;50.792;8.320;2023-06-26T04:08:09;13.90;99.90
17813;DHT22;9030;50.792;8.320;2023-06-26T04:10:36;14.00;99.90
17813;DHT22;9030;50.792;8.320;2023-06-26T04:13:02;13.90;99.90
17813;DHT22;9030;50.792;8.320;2023-06-26T04:15:30;14.00;99.90
17813;DHT22;9030;50.792;8.320;2023-06-26T04:17:57;14.00;99.90
17813;DHT22;9030;50.792;8.320;2023-06-26T04:20:24;14.10;99.90
17813;DHT22;9030;50.792;8.320;2023-06-26T04:22:50;14.30;99.90
17813;DHT22;9030;50.792;8.320;2023-06-26T04:25:17;14.40;99.90
17813;DHT22;9030;50.792;8.320;2023-06-26T04:27:43;14.50;99.90
17813;DHT22;9030;50.792;8.320;2023-06-26T04:30:11;14.70;99.90
17813;DHT22;9030;50.792;8.320;2023-06-26T04:32:39;14.80;99.90
17813;DHT22;9030;50.792;8.320;2023-06-26T04:35:07;15.00;99.90
17813;DHT22;9030;50.792;8.320;2023-06-26T04:37:35;15.30;99.90
17813;DHT22;9030;50.792;8.320;2023-06-26T04:40:02;15.40;99.90
17813;DHT22;9030;50.792;8.320;2023-06-26T04:42:30;15.30;99.90
17813;DHT22;9030;50.792;8.320;2023-06-26T04:44:56;15.50;99.90
17813;DHT22;9030;50.792;8.320;2023-06-26T04:47:23;15.70;99.90
17813;DHT22;9030;50.792;8.320;2023-06-26T04:49:51;15.60;99.90
17813;DHT22;9030;50.792;8.320;2023-06-26T04:52:18;15.60;99.90
17813;DHT22;9030;50.792;8.320;2023-06-26T04:54:44;15.60;99.90
17813;DHT22;9030;50.792;8.320;2023-06-26T04:57:11;15.70;99.90
17813;DHT22;9030;50.792;8.320;2023-06-26T04:59:38;15.80;99.90
17813;DHT22;9030;50.792;8.320;2023-06-26T05:02:05;16.10;99.90
17813;DHT22;9030;50.792;8.320;2023-06-26T05:04:32;16.60;99.90
17813;DHT22;9030;50.792;8.320;2023-06-26T05:07:00;17.00;99.90
17813;DHT22;9030;50.792;8.320;2023-06-26T05:09:26;17.30;99.90
17813;DHT22;9030;50.792;8.320;2023-06-26T05:11:53;17.50;99.90
17813;DHT22;9030;50.792;8.320;2023-06-26T05:14:19;17.70;99.90
17813;DHT22;9030;50.792;8.320;2023-06-26T05:16:46;18.00;99.90
17813;DHT22;9030;50.792;8.320;2023-06-26T05:19:13;18.30;99.90
17813;DHT22;9030;50.792;8.320;2023-06-26T05:21:40;18.30;99.90
17813;DHT22;9030;50.792;8.320;2023-06-26T05:24:09;17.80;99.90
17813;DHT22;9030;50.792;8.320;2023-06-26T05:26:37;17.50;99.90
17813;DHT22;9030;50.792;8.320;2023-06-26T05:29:04;17.60;99.90
17813;DHT22;9030;50.792;8.320;2023-06-26T05:31:32;18.20;99.90
17813;DHT22;9030;50.792;8.320;2023-06-26T05:34:02;18.70;99.90
17813;DHT22;9030;50.792;8.320;2023-06-26T05:36:30;19.00;99.90
17813;DHT22;9030;50.792;8.320;2023-06-26T05:38:58;19.40;99.90
17813;DHT22;9030;50.792;8.320;2023-06-26T05:41:27;19.60;99.90
17813;DHT22;9030;50.792;8.320;2023-06-26T05:43:54;19.80;99.90
17813;DHT22;9030;50.792;8.320;2023-06-26T05:46:21;20.20;99.90
17813;DHT22;9030;50.792;8.320;2023-06-26T05:48:48;20.60;99.90
17813;DHT22;9030;50.792;8.320;2023-06-26T05:51:15;20.70;99.90
17813;DHT22;9030;50.792;8.320;2023-06-26T05:53:42;20.80;99.90
17813;DHT22;9030;50.792;8.320;2023-06-26T05:56:09;21.00;99.90
17813;DHT22;9030;50.792;8.320;2023-06-26T05:58:38;21.30;99.90
17813;DHT22;9030;50.792;8.320;2023-06-26T06:01:05;21.50;99.90
17813;DHT22;9030;50.792;8.320;2023-06-26T06:03:32;21.60;99.90
17813;DHT22;9030;50.792;8.320;2023-06-26T06:05:59;21.70;99.90
17813;DHT22;9030;50.792;8.320;2023-06-26T06:08:25;21.50;99.90
17813;DHT22;9030;50.792;8.320;2023-06-26T06:10:53;21.80;99.90
17813;DHT22;9030;50.792;8.320;2023-06-26T06:13:19;21.80;99.90
17813;DHT22;9030;50.792;8.320;2023-06-26T06:15:47;22.00;99.90
17813;DHT22;9030;50.792;8.320;2023-06-26T06:18:14;22.10;99.90
17813;DHT22;9030;50.792;8.320;2023-06-26T06:20:41;22.20;99.90
17813;DHT22;9030;50.792;8.320;2023-06-26T06:23:07;22.30;99.90
17813;DHT22;9030;50.792;8.320;2023-06-26T06:25:34;22.20;99.90
17813;DHT22;9030;50.792;8.320;2023-06-26T06:28:01;22.40;99.90
17813;DHT22;9030;50.792;8.320;2023-06-26T06:30:27;22.60;99.90
17813;DHT22;9030;50.792;8.320;2023-06-26T06:32:55;22.60;99.90
17813;DHT22;9030;50.792;8.320;2023-06-26T06:35:22;22.50;99.90
17813;DHT22;9030;50.792;8.320;2023-06-26T06:37:49;22.60;99.90
17813;DHT22;9030;50.792;8.320;2023-06-26T06:40:16;22.80;99.90
17813;DHT22;9030;50.792;8.320;2023-06-26T06:42:42;23.10;99.90
17813;DHT22;9030;50.792;8.320;2023-06-26T06:45:09;23.20;99.90
17813;DHT22;9030;50.792;8.320;2023-06-26T06:47:36;23.50;99.90
17813;DHT22;9030;50.792;8.320;2023-06-26T06:50:05;23.60;99.90
17813;DHT22;9030;50.792;8.320;2023-06-26T06:52:35;23.60;99.90
17813;DHT22;9030;50.792;8.320;2023-06-26T06:55:02;24.00;99.90
17813;DHT22;9030;50.792;8.320;2023-06-26T06:57:32;24.20;99.90
17813;DHT22;9030;50.792;8.320;2023-06-26T07:00:01;23.70;99.90
17813;DHT22;9030;50.792;8.320;2023-06-26T07:02:29;23.90;99.90
17813;DHT22;9030;50.792;8.320;2023-06-26T07:04:56;24.10;99.90
17813;DHT22;9030;50.792;8.320;2023-06-26T07:07:28;23.90;99.90
17813;DHT22;9030;50.792;8.320;2023-06-26T07:09:56;23.80;99.90
17813;DHT22;9030;50.792;8.320;2023-06-26T07:12:24;24.00;99.90
17813;DHT22;9030;50.792;8.320;2023-06-26T07:14:50;24.60;99.90
17813;DHT22;9030;50.792;8.320;2023-06-26T07:17:17;25.10;99.90
17813;DHT22;9030;50.792;8.320;2023-06-26T07:19:43;25.00;99.90
17813;DHT22;9030;50.792;8.320;2023-06-26T07:22:10;24.80;99.90
17813;DHT22;9030;50.792;8.320;2023-06-26T07:24:38;24.80;99.90
17813;DHT22;9030;50.792;8.320;2023-06-26T07:27:05;24.60;99.90
17813;DHT22;9030;50.792;8.320;2023-06-26T07:29:32;24.90;99.90
17813;DHT22;9030;50.792;8.320;2023-06-26T07:31:58;25.10;99.90
17813;DHT22;9030;50.792;8.320;2023-06-26T07:34:25;25.30;99.90
17813;DHT22;9030;50.792;8.320;2023-06-26T07:36:52;25.00;99.90
17813;DHT22;9030;50.792;8.320;2023-06-26T07:39:19;25.00;99.90
17813;DHT22;9030;50.792;8.320;2023-06-26T07:41:47;24.70;99.90
17813;DHT22;9030;50.792;8.320;2023-06-26T07:44:14;24.40;99.90
17813;DHT22;9030;50.792;8.320;2023-06-26T07:46:41;24.50;99.90
17813;DHT22;9030;50.792;8.320;2023-06-26T07:49:07;24.90;99.90
17813;DHT22;9030;50.792;8.320;2023-06-26T07:51:34;24.70;99.90
17813;DHT22;9030;50.792;8.320;2023-06-26T07:54:01;24.40;99.90
17813;DHT22;9030;50.792;8.320;2023-06-26T07:56:27;23.90;99.90
17813;DHT22;9030;50.792;8.320;2023-06-26T07:58:55;23.60;99.90
17813;DHT22;9030;50.792;8.320;2023-06-26T08:01:24;23.70;99.90
17813;DHT22;9030;50.792;8.320;2023-06-26T08:03:50;24.60;99.90
17813;DHT22;9030;50.792;8.320;2023-06-26T08:06:17;25.20;99.90
17813;DHT22;9030;50.792;8.320;2023-06-26T08:08:44;25.70;99.90
17813;DHT22;9030;50.792;8.320;2023-06-26T08:11:10;25.10;99.90
17813;DHT22;9030;50.792;8.320;2023-06-26T08:13:37;24.80;99.90
17813;DHT22;9030;50.792;8.320;2023-06-26T08:16:06;25.40;99.90
17813;DHT22;9030;50.792;8.320;2023-06-26T08:18:32;25.20;99.90
17813;DHT22;9030;50.792;8.320;2023-06-26T08:20:59;25.80;99.90
17813;DHT22;9030;50.792;8.320;2023-06-26T08:23:26;25.30;99.90
17813;DHT22;9030;50.792;8.320;2023-06-26T08:25:52;25.40;99.90
17813;DHT22;9030;50.792;8.320;2023-06-26T08:28:19;25.90;99.90
17813;DHT22;9030;50.792;8.320;2023-06-26T08:30:46;26.40;99.90
17813;DHT22;9030;50.792;8.320;2023-06-26T08:33:14;26.80;99.90
17813;DHT22;9030;50.792;8.320;2023-06-26T08:35:40;26.80;99.90
17813;DHT22;9030;50.792;8.320;2023-06-26T08:38:08;26.10;99.90
17813;DHT22;9030;50.792;8.320;2023-06-26T08:40:35;25.50;99.90
17813;DHT22;9030;50.792;8.320;2023-06-26T08:43:02;25.00;99.90
17813;DHT22;9030;50.792;8.320;2023-06-26T08:45:29;25.10;99.90
17813;DHT22;9030;50.792;8.320;2023-06-26T08:47:59;26.00;99.90
17813;DHT22;9030;50.792;8.320;2023-06-26T08:50:30;26.50;99.90
17813;DHT22;9030;50.792;8.320;2023-06-26T08:53:04;25.40;99.90
17813;DHT22;9030;50.792;8.320;2023-06-26T08:55:33;24.70;99.90
17813;DHT22;9030;50.792;8.320;2023-06-26T08:58:02;24.10;99.90
17813;DHT22;9030;50.792;8.320;2023-06-26T09:00:29;23.80;99.90
17813;DHT22;9030;50.792;8.320;2023-06-26T09:02:56;22.80;99.90
17813;DHT22;9030;50.792;8.320;2023-06-26T09:05:23;22.40;99.90
17813;DHT22;9030;50.792;8.320;2023-06-26T09:07:51;22.10;99.90
17813;DHT22;9030;50.792;8.320;2023-06-26T09:10:21;21.80;99.90
17813;DHT22;9030;50.792;8.320;2023-06-26T09:12:47;21.90;99.90
17813;DHT22;9030;50.792;8.320;2023-06-26T09:15:14;22.20;99.90
17813;DHT22;9030;50.792;8.320;2023-06-26T09:17:42;22.70;99.90
17813;DHT22;9030;50.792;8.320;2023-06-26T09:20:09;23.10;99.90
17813;DHT22;9030;50.792;8.320;2023-06-26T09:22:38;23.30;99.90
17813;DHT22;9030;50.792;8.320;2023-06-26T09:25:07;23.80;99.90
17813;DHT22;9030;50.792;8.320;2023-06-26T09:27:34;24.10;99.90
17813;DHT22;9030;50.792;8.320;2023-06-26T09:30:02;24.30;99.90
17813;DHT22;9030;50.792;8.320;2023-06-26T09:32:29;24.80;99.90
17813;DHT22;9030;50.792;8.320;2023-06-26T09:34:56;24.80;99.90
17813;DHT22;9030;50.792;8.320;2023-06-26T09:37:22;24.70;99.90
17813;DHT22;9030;50.792;8.320;2023-06-26T09:39:50;24.50;99.90
17813;DHT22;9030;50.792;8.320;2023-06-26T09:42:19;24.80;99.90
17813;DHT22;9030;50.792;8.320;2023-06-26T09:44:46;24.90;99.90
17813;DHT22;9030;50.792;8.320;2023-06-26T09:47:16;25.50;99.90
17813;DHT22;9030;50.792;8.320;2023-06-26T09:49:43;25.90;99.90
17813;DHT22;9030;50.792;8.320;2023-06-26T09:52:14;25.00;99.90
17813;DHT22;9030;50.792;8.320;2023-06-26T09:54:41;25.40;99.90
17813;DHT22;9030;50.792;8.320;2023-06-26T09:57:11;25.60;99.90
17813;DHT22;9030;50.792;8.320;2023-06-26T09:59:39;25.10;99.90
17813;DHT22;9030;50.792;8.320;2023-06-26T10:02:06;24.50;99.90
17813;DHT22;9030;50.792;8.320;2023-06-26T10:04:35;24.70;99.90
17813;DHT22;9030;50.792;8.320;2023-06-26T10:07:04;24.30;99.90
17813;DHT22;9030;50.792;8.320;2023-06-26T10:09:31;24.30;99.90
17813;DHT22;9030;50.792;8.320;2023-06-26T10:12:02;24.50;99.90
17813;DHT22;9030;50.792;8.320;2023-06-26T10:14:34;24.60;99.90
17813;DHT22;9030;50.792;8.320;2023-06-26T10:17:04;24.90;99.90
17813;DHT22;9030;50.792;8.320;2023-06-26T10:19:33;25.30;99.90
17813;DHT22;9030;50.792;8.320;2023-06-26T10:22:02;25.10;99.90
17813;DHT22;9030;50.792;8.320;2023-06-26T10:24:33;24.80;99.90
17813;DHT22;9030;50.792;8.320;2023-06-26T10:27:04;24.70;99.90
17813;DHT22;9030;50.792;8.320;2023-06-26T10:29:34;24.30;99.90
17813;DHT22;9030;50.792;8.320;2023-06-26T10:32:04;24.10;99.90
17813;DHT22;9030;50.792;8.320;2023-06-26T10:34:31;23.70;99.90
17813;DHT22;9030;50.792;8.320;2023-06-26T10:37:01;24.10;99.90
17813;DHT22;9030;50.792;8.320;2023-06-26T10:39:46;24.70;99.90
17813;DHT22;9030;50.792;8.320;2023-06-26T10:42:13;25.60;99.90
17813;DHT22;9030;50.792;8.320;2023-06-26T10:44:41;26.30;99.90
17813;DHT22;9030;50.792;8.320;2023-06-26T10:47:10;26.70;99.90
17813;DHT22;9030;50.792;8.320;2023-06-26T10:49:38;25.10;99.90
17813;DHT22;9030;50.792;8.320;2023-06-26T10:52:06;25.40;99.90
17813;DHT22;9030;50.792;8.320;2023-06-26T10:54:33;25.60;99.90
17813;DHT22;9030;50.792;8.320;2023-06-26T10:56:59;25.20;99.90
17813;DHT22;9030;50.792;8.320;2023-06-26T10:59:28;25.00;99.90
17813;DHT22;9030;50.792;8.320;2023-06-26T11:01:57;25.00;99.90
17813;DHT22;9030;50.792;8.320;2023-06-26T11:04:39;25.30;99.90
17813;DHT22;9030;50.792;8.320;2023-06-26T11:07:16;25.60;99.90
17813;DHT22;9030;50.792;8.320;2023-06-26T11:09:55;25.90;99.90
17813;DHT22;9030;50.792;8.320;2023-06-26T11:12:35;25.90;99.90
17813;DHT22;9030;50.792;8.320;2023-06-26T11:15:02;24.80;99.90
17813;DHT22;9030;50.792;8.320;2023-06-26T11:17:29;25.10;99.90
17813;DHT22;9030;50.792;8.320;2023-06-26T11:19:57;25.10;99.90
17813;DHT22;9030;50.792;8.320;2023-06-26T11:22:25;25.00;99.90
17813;DHT22;9030;50.792;8.320;2023-06-26T11:24:54;26.10;99.90
17813;DHT22;9030;50.792;8.320;2023-06-26T11:27:20;26.60;99.90
17813;DHT22;9030;50.792;8.320;2023-06-26T11:29:49;26.90;99.90
17813;DHT22;9030;50.792;8.320;2023-06-26T11:32:16;25.90;99.90
17813;DHT22;9030;50.792;8.320;2023-06-26T11:34:42;26.40;99.90
17813;DHT22;9030;50.792;8.320;2023-06-26T11:37:11;27.50;99.90
17813;DHT22;9030;50.792;8.320;2023-06-26T11:39:38;27.90;99.90
17813;DHT22;9030;50.792;8.320;2023-06-26T11:42:05;28.00;99.90
17813;DHT22;9030;50.792;8.320;2023-06-26T11:44:31;28.00;99.90
17813;DHT22;9030;50.792;8.320;2023-06-26T11:46:58;26.80;99.90
17813;DHT22;9030;50.792;8.320;2023-06-26T11:49:25;25.70;99.90
17813;DHT22;9030;50.792;8.320;2023-06-26T11:51:53;24.50;99.90
17813;DHT22;9030;50.792;8.320;2023-06-26T11:54:26;24.10;99.90
17813;DHT22;9030;50.792;8.320;2023-06-26T11:56:54;24.10;99.90
17813;DHT22;9030;50.792;8.320;2023-06-26T11:59:23;24.20;99.90
17813;DHT22;9030;50.792;8.320;2023-06-26T12:01:51;25.50;99.90
17813;DHT22;9030;50.792;8.320;2023-06-26T12:04:20;25.80;99.90
17813;DHT22;9030;50.792;8.320;2023-06-26T12:06:50;25.30;99.90
17813;DHT22;9030;50.792;8.320;2023-06-26T12:09:18;26.30;99.90
17813;DHT22;9030;50.792;8.320;2023-06-26T12:11:48;26.20;99.90
17813;DHT22;9030;50.792;8.320;2023-06-26T12:14:17;25.80;99.90
17813;DHT22;9030;50.792;8.320;2023-06-26T12:16:44;25.90;99.90
17813;DHT22;9030;50.792;8.320;2023-06-26T12:19:11;26.10;99.90
17813;DHT22;9030;50.792;8.320;2023-06-26T12:21:48;24.70;99.90
17813;DHT22;9030;50.792;8.320;2023-06-26T12:24:19;24.20;99.90
17813;DHT22;9030;50.792;8.320;2023-06-26T12:26:49;24.40;99.90
17813;DHT22;9030;50.792;8.320;2023-06-26T12:29:18;25.40;99.90
17813;DHT22;9030;50.792;8.320;2023-06-26T12:31:48;25.80;99.90
17813;DHT22;9030;50.792;8.320;2023-06-26T12:34:17;25.60;99.90
17813;DHT22;9030;50.792;8.320;2023-06-26T12:36:45;25.80;99.90
17813;DHT22;9030;50.792;8.320;2023-06-26T12:39:15;26.00;99.90
17813;DHT22;9030;50.792;8.320;2023-06-26T12:41:48;26.40;99.90
17813;DHT22;9030;50.792;8.320;2023-06-26T12:44:19;25.40;99.90
17813;DHT22;9030;50.792;8.320;2023-06-26T12:46:47;26.20;99.90
17813;DHT22;9030;50.792;8.320;2023-06-26T12:49:14;27.10;99.90
17813;DHT22;9030;50.792;8.320;2023-06-26T12:51:40;27.00;99.90
17813;DHT22;9030;50.792;8.320;2023-06-26T12:54:08;27.70;99.90
17813;DHT22;9030;50.792;8.320;2023-06-26T12:56:35;27.80;99.90
17813;DHT22;9030;50.792;8.320;2023-06-26T12:59:03;26.90;99.90
17813;DHT22;9030;50.792;8.320;2023-06-26T13:01:29;26.30;99.90
17813;DHT22;9030;50.792;8.320;2023-06-26T13:03:56;25.60;99.90
17813;DHT22;9030;50.792;8.320;2023-06-26T13:06:23;26.10;99.90
17813;DHT22;9030;50.792;8.320;2023-06-26T13:08:49;26.40;99.90
17813;DHT22;9030;50.792;8.320;2023-06-26T13:11:16;27.20;99.90
17813;DHT22;9030;50.792;8.320;2023-06-26T13:13:43;27.70;99.90
17813;DHT22;9030;50.792;8.320;2023-06-26T13:16:11;27.50;99.90
17813;DHT22;9030;50.792;8.320;2023-06-26T13:18:37;27.40;99.90
17813;DHT22;9030;50.792;8.320;2023-06-26T13:21:04;26.80;99.90
17813;DHT22;9030;50.792;8.320;2023-06-26T13:23:31;27.40;99.90
17813;DHT22;9030;50.792;8.320;2023-06-26T13:25:57;27.50;99.90
17813;DHT22;9030;50.792;8.320;2023-06-26T13:28:24;27.50;99.90
17813;DHT22;9030;50.792;8.320;2023-06-26T13:30:51;27.10;99.90
17813;DHT22;9030;50.792;8.320;2023-06-26T13:33:18;25.80;99.90
17813;DHT22;9030;50.792;8.320;2023-06-26T13:35:45;25.40;99.90
17813;DHT22;9030;50.792;8.320;2023-06-26T13:38:12;25.70;99.90
17813;DHT22;9030;50.792;8.320;2023-06-26T13:40:38;25.50;99.90
17813;DHT22;9030;50.792;8.320;2023-06-26T13:43:05;25.90;99.90
17813;DHT22;9030;50.792;8.320;2023-06-26T13:45:31;26.70;99.90
17813;DHT22;9030;50.792;8.320;2023-06-26T13:47:58;27.00;99.90
17813;DHT22;9030;50.792;8.320;2023-06-26T13:50:26;26.40;99.90
17813;DHT22;9030;50.792;8.320;2023-06-26T13:52:53;27.40;99.90
17813;DHT22;9030;50.792;8.320;2023-06-26T13:55:19;26.70;99.90
17813;DHT22;9030;50.792;8.320;2023-06-26T13:57:48;26.60;99.90
17813;DHT22;9030;50.792;8.320;2023-06-26T14:00:15;26.90;99.90
17813;DHT22;9030;50.792;8.320;2023-06-26T14:02:45;26.90;99.90
17813;DHT22;9030;50.792;8.320;2023-06-26T14:05:12;26.80;99.90
17813;DHT22;9030;50.792;8.320;2023-06-26T14:07:40;26.50;99.90
17813;DHT22;9030;50.792;8.320;2023-06-26T14:10:09;27.20;99.90
17813;DHT22;9030;50.792;8.320;2023-06-26T14:12:36;26.50;99.90
17813;DHT22;9030;50.792;8.320;2023-06-26T14:15:03;26.30;99.90
17813;DHT22;9030;50.792;8.320;2023-06-26T14:17:30;27.30;99.90
17813;DHT22;9030;50.792;8.320;2023-06-26T14:19:57;28.10;99.90
17813;DHT22;9030;50.792;8.320;2023-06-26T14:22:23;26.70;99.90
17813;DHT22;9030;50.792;8.320;2023-06-26T14:24:52;26.80;99.90
17813;DHT22;9030;50.792;8.320;2023-06-26T14:27:19;25.90;99.90
17813;DHT22;9030;50.792;8.320;2023-06-26T14:29:45;26.00;99.90
17813;DHT22;9030;50.792;8.320;2023-06-26T14:32:12;26.10;99.90
17813;DHT22;9030;50.792;8.320;2023-06-26T14:34:39;26.90;99.90
17813;DHT22;9030;50.792;8.320;2023-06-26T14:37:06;26.60;99.90
17813;DHT22;9030;50.792;8.320;2023-06-26T14:39:33;26.80;99.90
17813;DHT22;9030;50.792;8.320;2023-06-26T14:42:01;27.10;99.90
17813;DHT22;9030;50.792;8.320;2023-06-26T14:44:27;26.30;99.90
17813;DHT22;9030;50.792;8.320;2023-06-26T14:46:54;25.60;99.90
17813;DHT22;9030;50.792;8.320;2023-06-26T14:49:21;26.00;99.90
17813;DHT22;9030;50.792;8.320;2023-06-26T14:51:48;26.00;99.90
17813;DHT22;9030;50.792;8.320;2023-06-26T14:54:14;26.20;99.90
17813;DHT22;9030;50.792;8.320;2023-06-26T14:56:41;26.40;99.90
17813;DHT22;9030;50.792;8.320;2023-06-26T14:59:10;26.00;99.90
17813;DHT22;9030;50.792;8.320;2023-06-26T15:01:37;25.80;99.90
17813;DHT22;9030;50.792;8.320;2023-06-26T15:04:05;26.20;99.90
17813;DHT22;9030;50.792;8.320;2023-06-26T15:06:31;26.20;99.90
17813;DHT22;9030;50.792;8.320;2023-06-26T15:08:59;26.30;99.90
17813;DHT22;9030;50.792;8.320;2023-06-26T15:11:26;26.30;99.90
17813;DHT22;9030;50.792;8.320;2023-06-26T15:13:53;26.60;99.90
17813;DHT22;9030;50.792;8.320;2023-06-26T15:16:21;25.60;99.90
17813;DHT22;9030;50.792;8.320;2023-06-26T15:18:47;25.60;99.90
17813;DHT22;9030;50.792;8.320;2023-06-26T15:21:14;25.60;99.90
17813;DHT22;9030;50.792;8.320;2023-06-26T15:23:41;25.70;99.90
17813;DHT22;9030;50.792;8.320;2023-06-26T15:26:07;25.20;99.90
17813;DHT22;9030;50.792;8.320;2023-06-26T15:28:34;25.10;99.90
17813;DHT22;9030;50.792;8.320;2023-06-26T15:31:01;25.60;99.90
17813;DHT22;9030;50.792;8.320;2023-06-26T15:33:29;25.60;99.90
17813;DHT22;9030;50.792;8.320;2023-06-26T15:35:55;24.60;99.90
17813;DHT22;9030;50.792;8.320;2023-06-26T15:38:22;24.10;99.90
17813;DHT22;9030;50.792;8.320;2023-06-26T15:40:49;23.40;99.90
17813;DHT22;9030;50.792;8.320;2023-06-26T15:43:15;23.00;99.90
17813;DHT22;9030;50.792;8.320;2023-06-26T15:45:42;23.00;99.90
17813;DHT22;9030;50.792;8.320;2023-06-26T15:48:09;22.90;99.90